Nearby METAR Reports

 

KNUQ - Moffett Nas/Mtn, California, USA
Distance from station: N 9mi, 14km
Updated: Mon, 24-Sep-2018 6:56pm PDT
Clear
Clear
 Wind from NNW
Wind: NNW 8 mph , 13 km/h
Temperature: 66°F , 19°C
Dew Point: 55°F , 13°C
Humidity: 68%
Barometer: 29.84 inHg , 1010.5 hPa
Clouds: Clear
Visibility: 10 miles , 16 km
2018/09/25 01:56 KNUQ 250156Z 34007KT 10SM CLR 19/13 A2984 RMK AO2 SLP106 T01890128 $
KSJC - San Jose, California, USA
Distance from station: NE 9mi, 14km
Updated: Mon, 24-Sep-2018 6:53pm PDT
Few Clouds
Few Clouds
 Wind from WNW
Wind: WNW 10 mph , 17 km/h
Temperature: 70°F , 21°C
Dew Point: 52°F , 11°C
Humidity: 53%
Barometer: 29.82 inHg , 1009.8 hPa
Clouds: Few Clouds
Visibility: 10 miles , 16 km
Cloud details: Few Clouds 8000 ft
2018/09/25 01:53 KSJC 250153Z 29009KT 10SM FEW080 21/11 A2982 RMK AO2 SLP098 T02110111
 
KRHV - San Jose/Reid, California, USA
Distance from station: ENE 12mi, 19km
Updated: Mon, 24-Sep-2018 6:50pm PDT
Clear
Clear
 Wind from W
Wind: W 7 mph , 11 km/h
Temperature: 75°F , 24°C
Dew Point: 54°F , 12°C
Humidity: 47%
Barometer: 29.80 inHg , 1009.1 hPa
Clouds: Clear
Visibility: 10 miles , 16 km
2018/09/25 01:50 KRHV 250150Z 28006KT 10SM SKC 24/12 A2980
KPAO - Palo Alto, California, USA
Distance from station: NNW 14mi, 23km
Updated: Mon, 24-Sep-2018 6:47pm PDT
Clear
Clear
 Wind from NNW
Wind: NNW 15 mph , 24 km/h
Temperature: 64°F , 18°C
Dew Point: 63°F , 17°C
Humidity: 94%
Barometer: 29.84 inHg , 1010.5 hPa
Clouds: Clear
Visibility: 10 miles , 16 km
2018/09/25 01:47 KPAO 250147Z 34013KT 10SM SKC 18/17 A2984
 
KSQL - San Carlos Airpo, California, USA
Distance from station: NW 21mi, 34km
Updated: Mon, 24-Sep-2018 5:48pm PDT
Few Clouds
Few Clouds
 Wind from N
Wind: N 9 mph , 15 km/h
Temperature: 68°F , 20°C
Dew Point: 55°F , 13°C
Humidity: 64%
Barometer: 29.82 inHg , 1009.8 hPa
Clouds: Few Clouds
Visibility: 10 miles , 16 km
Cloud details: Few Clouds 20000 ft
2018/09/25 00:48 KSQL 250048Z 35008KT 10SM FEW200 20/13 A2982
KWVI - Watsonville, California, USA
Distance from station: SSE 27mi, 44km
Updated: Mon, 24-Sep-2018 6:53pm PDT
Clear
Clear
 Wind from WSW
Wind: WSW 3 mph , 6 km/h
Temperature: 54°F , 12°C
Dew Point: 52°F , 11°C
Humidity: 94%
Barometer: 29.87 inHg , 1011.5 hPa
Clouds: Clear
Visibility: 10 miles , 16 km
2018/09/25 01:53 KWVI 250153Z AUTO 25003KT 10SM CLR 12/11 A2987 RMK AO2 SLP115 T01220106
 
KHWD - Hayward, California, USA
Distance from station: N 28mi, 44km
Updated: Mon, 24-Sep-2018 6:54pm PDT
Clear
Clear
 Wind from NW
Wind: NW 9 mph , 15 km/h
Temperature: 66°F , 19°C
Dew Point: 50°F , 10°C
Humidity: 56%
Barometer: 29.83 inHg , 1010.2 hPa
Clouds: Clear
Visibility: 10 miles , 16 km
2018/09/25 01:54 KHWD 250154Z 32008KT 10SM CLR 19/10 A2983 RMK AO2 SLP110 T01940100
KSFO - San Francisco, California, USA
Distance from station: NW 30mi, 49km
Updated: Mon, 24-Sep-2018 6:56pm PDT
Few Clouds
Few Clouds
 Wind from WNW
Wind: WNW 17 mph , 28 km/h
Temperature: 57°F , 14°C
Dew Point: 52°F , 11°C
Humidity: 82%
Barometer: 29.82 inHg , 1009.8 hPa
Clouds: Few Clouds
Visibility: 10 miles , 16 km
Cloud details: Few Clouds 1000 ft
2018/09/25 01:56 KSFO 250156Z 29015KT 10SM FEW010 14/11 A2982 RMK AO2 SLP098 T01440106
 
KHAF - Half Moon Bay, California, USA
Distance from station: WNW 31mi, 50km
Updated: Mon, 24-Sep-2018 6:55pm PDT
Mist, Clear
Mist, Clear
 
Temperature: 55°F , 13°C
Dew Point: 54°F , 12°C
Humidity: 94%
Barometer: 29.88 inHg , 1011.9 hPa
Summary: Mist
Clouds: Clear
Visibility: 3 miles , 5 km
2018/09/25 01:55 KHAF 250155Z AUTO 3SM BR CLR 13/12 A2988 RMK AO2
KOAK - Oakland, California, USA
Distance from station: NNW 31mi, 50km
Updated: Mon, 24-Sep-2018 6:53pm PDT
Few Clouds
Few Clouds
 Wind from NNW
Wind: NNW 7 mph , 11 km/h
Temperature: 61°F , 16°C
Dew Point: 54°F , 12°C
Humidity: 77%
Barometer: 29.84 inHg , 1010.5 hPa
Clouds: Few Clouds
Visibility: 10 miles , 16 km
Cloud details: Few Clouds 800 ft
2018/09/25 01:53 KOAK 250153Z 34006KT 10SM FEW008 16/12 A2984 RMK AO2 SLP105 T01610117
 
KLVK - Livermore, California, USA
Distance from station: NNE 31mi, 51km
Updated: Mon, 24-Sep-2018 6:53pm PDT
Clear
Clear
 Wind from W
Wind: W 7 mph , 11 km/h
Temperature: 77°F , 25°C
Dew Point: 43°F , 6°C
Humidity: 30%
Barometer: 29.80 inHg , 1009.1 hPa
Clouds: Clear
Visibility: 10 miles , 16 km
2018/09/25 01:53 KLVK 250153Z 28006KT 10SM CLR 25/06 A2980 RMK AO2 SLP089 T02500056
KCVH - Hollister Muni, California, USA
Distance from station: SE 42mi, 68km
Updated: Mon, 24-Sep-2018 6:55pm PDT
Clear
Clear
 Wind from W
Wind: W 13 mph , 20 km/h
Temperature: 61°F , 16°C
Dew Point: 50°F , 10°C
Humidity: 68%
Barometer: 29.84 inHg , 1010.5 hPa
Clouds: Clear
Visibility: 9 miles , 14 km
2018/09/25 01:55 KCVH 250155Z AUTO 27011KT 9SM CLR 16/10 A2984 RMK A01
 
KSNS - Salinas, California, USA
Distance from station: SSE 48mi, 77km
Updated: Mon, 24-Sep-2018 6:53pm PDT
Haze, Clear
Haze, Clear
 Wind from NNW
Wind: NNW 10 mph , 17 km/h
Temperature: 59°F , 15°C
Dew Point: 54°F , 12°C
Humidity: 82%
Barometer: 29.86 inHg , 1011.2 hPa
Summary: Haze
Clouds: Clear
Visibility: 5 miles , 8 km
2018/09/25 01:53 KSNS 250153Z 33009KT 5SM HZ CLR 15/12 A2986 RMK AO2 SLP121 T01500117
KMRY - Monterey, California, USA
Distance from station: SSE 49mi, 78km
Updated: Mon, 24-Sep-2018 6:54pm PDT
Clear
Clear
 Wind from SW
Wind: SW 7 mph , 11 km/h
Temperature: 57°F , 14°C
Dew Point: 52°F , 11°C
Humidity: 82%
Barometer: 29.87 inHg , 1011.5 hPa
Clouds: Clear
Visibility: 9 miles , 14 km
2018/09/25 01:54 KMRY 250154Z 23006KT 9SM CLR 14/11 A2987 RMK AO2 SLP127 T01440111
 
KCCR - Concord, California, USA
Distance from station: N 50mi, 81km
Updated: Mon, 24-Sep-2018 6:53pm PDT
Clear
Clear
 Wind from NW
Wind: NW 12 mph , 19 km/h
Temperature: 79°F , 26°C
Dew Point: 45°F , 7°C
Humidity: 30%
Barometer: 29.79 inHg , 1008.8 hPa
Clouds: Clear
Visibility: 10 miles , 16 km
2018/09/25 01:53 KCCR 250153Z 31010KT 10SM CLR 26/07 A2979 RMK AO2 SLP076 T02610072

Metar display script from Saratoga-Weather.org